createdAt,value
2022-10-13T00:01:51.482Z,101796.59
2022-10-13T00:06:55.163Z,101780.06
2022-10-13T00:12:02.790Z,101773.84
2022-10-13T00:17:07.791Z,101779.75
2022-10-13T00:22:11.460Z,101772.63
2022-10-13T00:27:15.139Z,101777.47
2022-10-13T00:32:20.934Z,101773.94
2022-10-13T00:37:24.921Z,101768.09
2022-10-13T00:42:28.616Z,101770.13
2022-10-13T00:47:44.934Z,101755.59
2022-10-13T00:52:49.632Z,101756.59
2022-10-13T00:57:56.183Z,101760.00
2022-10-13T01:03:04.217Z,101760.50
2022-10-13T01:08:08.365Z,101773.47
2022-10-13T01:13:21.364Z,101766.66
2022-10-13T01:18:38.754Z,101756.19
2022-10-13T01:24:11.443Z,101760.66
2022-10-13T01:29:31.118Z,101762.41
2022-10-13T01:34:44.748Z,101757.16
2022-10-13T01:39:54.599Z,101749.28
2022-10-13T01:45:02.649Z,101755.59
2022-10-13T01:50:09.619Z,101758.81
2022-10-13T01:55:14.648Z,101745.06
2022-10-13T02:00:20.714Z,101732.88
2022-10-13T02:05:35.469Z,101735.72
2022-10-13T02:10:47.086Z,101739.13
2022-10-13T02:15:55.314Z,101722.97
2022-10-13T02:21:00.660Z,101710.16
2022-10-13T02:26:04.954Z,101703.94
2022-10-13T02:31:09.566Z,101698.09
2022-10-13T02:36:14.572Z,101690.34
2022-10-13T02:41:18.282Z,101686.00
2022-10-13T02:46:22.005Z,101679.31
2022-10-13T02:51:27.433Z,101684.59
2022-10-13T02:56:31.103Z,101690.69
2022-10-13T03:01:35.843Z,101689.94
2022-10-13T03:06:40.912Z,101687.56
2022-10-13T03:11:46.158Z,101686.72
2022-10-13T03:16:49.894Z,101686.59
2022-10-13T03:21:57.924Z,101673.47
2022-10-13T03:27:01.532Z,101671.81
2022-10-13T03:32:05.708Z,101663.91
2022-10-13T03:37:10.807Z,101655.44
2022-10-13T03:42:18.219Z,101654.56
2022-10-13T03:47:23.756Z,101636.19
2022-10-13T03:52:28.752Z,101648.31
2022-10-13T03:57:32.445Z,101643.81
2022-10-13T04:02:36.264Z,101630.03
2022-10-13T04:07:41.489Z,101630.75
2022-10-13T04:12:50.939Z,101641.78
2022-10-13T04:17:54.705Z,101641.00
2022-10-13T04:22:59.686Z,101624.25
2022-10-13T04:28:03.471Z,101633.03
2022-10-13T04:33:09.257Z,101634.63
2022-10-13T04:38:14.306Z,101642.09
2022-10-13T04:43:18.314Z,101646.91
2022-10-13T04:48:21.948Z,101633.34
2022-10-13T04:53:29.082Z,101627.25
2022-10-13T04:58:32.852Z,101627.72
2022-10-13T05:03:38.123Z,101634.25
2022-10-13T05:08:43.164Z,101618.50
2022-10-13T05:13:50.510Z,101614.53
2022-10-13T05:18:55.844Z,101617.94
2022-10-13T05:24:02.503Z,101618.91
2022-10-13T05:29:06.812Z,101620.69
2022-10-13T05:34:11.253Z,101624.38
2022-10-13T05:39:16.314Z,101614.97
2022-10-13T05:44:20.569Z,101619.34
2022-10-13T05:49:27.059Z,101624.53
2022-10-13T05:54:36.191Z,101621.88
2022-10-13T05:59:43.094Z,101602.00
2022-10-13T06:04:51.621Z,101598.56
2022-10-13T06:09:57.439Z,101617.66
2022-10-13T06:15:01.048Z,101610.00
2022-10-13T06:20:06.124Z,101602.81
2022-10-13T06:25:11.577Z,101605.25
2022-10-13T06:30:15.354Z,101604.69
2022-10-13T06:35:19.181Z,101599.53
2022-10-13T06:40:24.357Z,101585.69
2022-10-13T06:45:28.213Z,101581.38
2022-10-13T06:50:32.268Z,101581.38
2022-10-13T06:55:37.416Z,101587.19
2022-10-13T07:00:42.453Z,101588.28
2022-10-13T07:05:46.884Z,101588.50
2022-10-13T07:10:51.965Z,101585.25
2022-10-13T07:15:55.760Z,101598.12
2022-10-13T07:21:01.767Z,101599.16
2022-10-13T07:26:10.654Z,101587.16
2022-10-13T07:31:15.971Z,101590.72
2022-10-13T07:36:20.425Z,101588.63
2022-10-13T07:41:25.847Z,101588.69
2022-10-13T07:46:32.073Z,101586.59
2022-10-13T07:51:35.726Z,101586.94
2022-10-13T07:56:40.742Z,101592.47
2022-10-13T08:01:45.992Z,101595.84
2022-10-13T08:06:49.819Z,101580.59
2022-10-13T08:11:58.899Z,101590.19
2022-10-13T08:17:04.399Z,101586.22
2022-10-13T08:22:09.820Z,101581.25
2022-10-13T08:27:20.941Z,101576.91
2022-10-13T08:32:24.876Z,101578.75
2022-10-13T08:37:29.202Z,101580.19
2022-10-13T08:42:34.450Z,101581.34
2022-10-13T08:47:44.603Z,101581.50
2022-10-13T08:52:51.328Z,101574.81
2022-10-13T08:57:56.568Z,101567.97
2022-10-13T09:03:20.698Z,101563.47
2022-10-13T09:08:28.028Z,101559.06
2022-10-13T09:13:34.194Z,101562.69
2022-10-13T09:18:38.502Z,101567.28
2022-10-13T09:23:43.881Z,101565.19
2022-10-13T09:28:49.313Z,101557.00
2022-10-13T09:34:00.549Z,101565.19
2022-10-13T09:39:12.503Z,101561.63
2022-10-13T09:44:24.242Z,101554.59
2022-10-13T09:49:38.373Z,101549.91
2022-10-13T09:54:46.751Z,101549.75
2022-10-13T09:59:52.753Z,101553.88
2022-10-13T10:04:59.438Z,101541.38
2022-10-13T10:10:06.758Z,101550.19
2022-10-13T10:15:22.276Z,101543.78
2022-10-13T10:20:45.871Z,101541.09
2022-10-13T10:25:52.799Z,101544.47
2022-10-13T10:31:04.394Z,101540.34
2022-10-13T10:36:16.928Z,101532.13
2022-10-13T10:41:37.320Z,101532.63
2022-10-13T10:46:47.659Z,101527.16
2022-10-13T10:51:51.414Z,101521.41
2022-10-13T10:56:59.446Z,101520.22
2022-10-13T11:02:17.476Z,101519.56
2022-10-13T11:08:09.793Z,101521.31
2022-10-13T11:13:19.882Z,101507.72
2022-10-13T11:19:05.700Z,101503.91
2022-10-13T11:24:55.133Z,101503.47
2022-10-13T11:30:01.186Z,101492.69
2022-10-13T11:35:21.119Z,101497.13
2022-10-13T11:40:33.760Z,101489.25
2022-10-13T11:45:46.597Z,101488.66
2022-10-13T11:51:04.839Z,101479.59
2022-10-13T11:56:21.139Z,101479.75
2022-10-13T12:01:24.935Z,101474.16
2022-10-13T12:06:34.257Z,101462.91
2022-10-13T12:11:39.620Z,101459.12
2022-10-13T12:16:53.661Z,101462.47
2022-10-13T12:21:59.282Z,101464.44
2022-10-13T12:27:11.798Z,101458.06
2022-10-13T12:32:23.204Z,101457.19
2022-10-13T12:37:29.652Z,101450.13
2022-10-13T12:42:37.342Z,101447.09
2022-10-13T12:47:49.278Z,101438.88
2022-10-13T12:52:55.133Z,101438.97
2022-10-13T12:58:00.542Z,101440.00
2022-10-13T13:03:07.709Z,101436.63
2022-10-13T13:08:25.838Z,101438.50
2022-10-13T13:13:31.579Z,101441.16
2022-10-13T13:18:41.614Z,101435.47
2022-10-13T13:23:52.785Z,101441.03
2022-10-13T13:29:00.403Z,101448.94
2022-10-13T13:34:04.099Z,101430.47
2022-10-13T13:39:13.622Z,101425.66
2022-10-13T13:44:20.604Z,101433.87
2022-10-13T13:49:24.854Z,101434.00
2022-10-13T13:54:28.612Z,101429.91
2022-10-13T13:59:34.330Z,101428.22
2022-10-13T14:04:38.492Z,101426.25
2022-10-13T14:09:42.176Z,101432.19
2022-10-13T14:14:48.104Z,101429.91
2022-10-13T14:19:52.262Z,101424.13
2022-10-13T14:24:55.930Z,101424.75
2022-10-13T14:30:01.461Z,101420.50
2022-10-13T14:35:06.629Z,101416.91
2022-10-13T14:40:11.175Z,101411.78
2022-10-13T14:45:16.825Z,101411.16
2022-10-13T14:50:20.658Z,101413.37
2022-10-13T14:55:26.438Z,101401.09
2022-10-13T15:00:31.579Z,101406.31
2022-10-13T15:05:36.751Z,101399.59
2022-10-13T15:10:40.479Z,101400.09
2022-10-13T15:15:48.673Z,101400.19
2022-10-13T15:20:54.033Z,101399.87
2022-10-13T15:25:59.739Z,101398.22
2022-10-13T15:31:05.433Z,101400.47
2022-10-13T15:36:09.785Z,101399.87
2022-10-13T15:41:16.126Z,101397.44
2022-10-13T15:46:24.307Z,101399.41
2022-10-13T15:51:28.245Z,101400.50
2022-10-13T15:56:31.869Z,101401.25
2022-10-13T16:01:37.270Z,101395.09
2022-10-13T16:06:40.933Z,101387.56
2022-10-13T16:11:44.692Z,101388.34
2022-10-13T16:16:49.794Z,101387.56
2022-10-13T16:21:53.527Z,101385.66
2022-10-13T16:26:57.339Z,101382.84
2022-10-13T16:32:03.027Z,101378.44
2022-10-13T16:37:06.843Z,101381.56
2022-10-13T16:42:10.500Z,101395.81
2022-10-13T16:47:18.360Z,101396.28
2022-10-13T16:52:22.540Z,101394.06
2022-10-13T16:57:27.145Z,101401.78
2022-10-13T17:02:32.199Z,101417.09
2022-10-13T17:07:35.877Z,101417.19
2022-10-13T17:12:39.609Z,101429.31
2022-10-13T17:17:44.878Z,101428.69
2022-10-13T17:22:48.629Z,101442.00
2022-10-13T17:27:54.337Z,101435.91
2022-10-13T17:33:04.038Z,101446.25
2022-10-13T17:38:08.248Z,101438.72
2022-10-13T17:43:12.463Z,101443.84
2022-10-13T17:48:22.151Z,101449.09
2022-10-13T17:53:26.698Z,101455.88
2022-10-13T17:58:31.079Z,101452.28
2022-10-13T18:03:36.324Z,101461.75
2022-10-13T18:08:40.011Z,101464.56
2022-10-13T18:13:44.549Z,101448.91
2022-10-13T18:18:50.966Z,101455.94
2022-10-13T18:23:55.542Z,101466.34
2022-10-13T18:28:59.499Z,101472.03
2022-10-13T18:34:07.187Z,101468.78
2022-10-13T18:39:14.500Z,101464.69
2022-10-13T18:44:19.627Z,101465.31
2022-10-13T18:49:30.939Z,101481.66
2022-10-13T18:54:35.167Z,101480.03
2022-10-13T18:59:39.421Z,101480.16
2022-10-13T19:04:44.477Z,101482.69
2022-10-13T19:09:48.288Z,101478.94
2022-10-13T19:14:52.145Z,101478.88
2022-10-13T19:19:57.239Z,101480.78
2022-10-13T19:25:01.064Z,101476.47
2022-10-13T19:30:05.405Z,101478.25
2022-10-13T19:35:10.954Z,101475.59
2022-10-13T19:40:14.988Z,101486.84
2022-10-13T19:45:19.430Z,101481.75
2022-10-13T19:50:24.592Z,101487.69
2022-10-13T19:55:28.419Z,101481.66
2022-10-13T20:00:32.227Z,101483.47
2022-10-13T20:05:41.046Z,101486.94
2022-10-13T20:10:44.841Z,101493.84
2022-10-13T20:15:48.708Z,101490.41
2022-10-13T20:20:53.813Z,101504.25
2022-10-13T20:25:57.953Z,101496.38
2022-10-13T20:31:05.996Z,101502.44
2022-10-13T20:36:13.602Z,101506.84
2022-10-13T20:41:19.543Z,101507.66
2022-10-13T20:46:24.059Z,101504.25
2022-10-13T20:51:29.207Z,101505.88
2022-10-13T20:56:32.956Z,101505.94
2022-10-13T21:01:38.042Z,101511.09
2022-10-13T21:06:43.526Z,101519.69
2022-10-13T21:11:47.297Z,101505.88
2022-10-13T21:16:51.076Z,101510.97
2022-10-13T21:21:56.245Z,101503.22
2022-10-13T21:26:59.939Z,101509.28
2022-10-13T21:32:03.646Z,101505.06
2022-10-13T21:37:08.724Z,101498.09
2022-10-13T21:42:12.405Z,101492.06
2022-10-13T21:47:16.072Z,101493.78
2022-10-13T21:52:21.271Z,101486.84
2022-10-13T21:57:24.989Z,101495.53
2022-10-13T22:02:28.680Z,101495.63
2022-10-13T22:07:33.782Z,101479.78
2022-10-13T22:12:37.503Z,101474.37
2022-10-13T22:17:41.269Z,101477.00
2022-10-13T22:22:46.320Z,101473.56
2022-10-13T22:27:50.081Z,101473.66
2022-10-13T22:32:53.777Z,101470.31
2022-10-13T22:37:58.925Z,101463.22
2022-10-13T22:43:03.034Z,101460.06
2022-10-13T22:48:07.267Z,101463.34
2022-10-13T22:53:12.566Z,101455.75
2022-10-13T22:58:16.262Z,101455.75
2022-10-13T23:03:19.996Z,101456.63
2022-10-13T23:08:26.668Z,101447.97
2022-10-13T23:13:30.416Z,101442.75
2022-10-13T23:18:35.314Z,101439.97
2022-10-13T23:23:40.700Z,101435.59
2022-10-13T23:28:45.388Z,101433.69
2022-10-13T23:33:49.080Z,101429.31
2022-10-13T23:38:57.005Z,101425.62
2022-10-13T23:44:00.782Z,101430.81
2022-10-13T23:49:04.644Z,101425.91
2022-10-13T23:54:09.810Z,101428.62
2022-10-13T23:59:13.553Z,101429.66
